sensor_id;sensor_type;location;lat;lon;timestamp;pressure;altitude;pressure_sealevel;temperature;humidity
9415;BME280;4746;35.664;139.738;2023-05-24T00:00:13;99708.56;;;21.76;34.24
9415;BME280;4746;35.664;139.738;2023-05-24T00:02:41;99725.13;;;21.75;34.27
9415;BME280;4746;35.664;139.738;2023-05-24T00:05:11;99721.47;;;21.79;33.80
9415;BME280;4746;35.664;139.738;2023-05-24T00:07:40;99734.44;;;21.81;34.12
9415;BME280;4746;35.664;139.738;2023-05-24T00:10:10;99727.44;;;21.81;33.42
9415;BME280;4746;35.664;139.738;2023-05-24T00:12:38;99697.91;;;21.81;33.50
9415;BME280;4746;35.664;139.738;2023-05-24T00:15:06;99740.28;;;21.86;33.24
9415;BME280;4746;35.664;139.738;2023-05-24T00:17:33;99721.88;;;21.89;33.20
9415;BME280;4746;35.664;139.738;2023-05-24T00:20:09;99704.25;;;21.94;33.07
9415;BME280;4746;35.664;139.738;2023-05-24T00:22:39;99751.28;;;21.92;33.28
9415;BME280;4746;35.664;139.738;2023-05-24T00:25:07;99732.88;;;21.95;32.94
9415;BME280;4746;35.664;139.738;2023-05-24T00:27:36;99728.38;;;21.99;32.82
9415;BME280;4746;35.664;139.738;2023-05-24T00:30:05;99718.34;;;22.08;32.91
9415;BME280;4746;35.664;139.738;2023-05-24T00:32:35;99725.09;;;22.12;32.87
9415;BME280;4746;35.664;139.738;2023-05-24T00:35:02;99731.44;;;22.07;33.05
9415;BME280;4746;35.664;139.738;2023-05-24T00:37:30;99770.09;;;22.17;33.20
9415;BME280;4746;35.664;139.738;2023-05-24T00:39:57;99749.63;;;22.27;32.96
9415;BME280;4746;35.664;139.738;2023-05-24T00:42:25;99740.75;;;22.31;33.14
9415;BME280;4746;35.664;139.738;2023-05-24T00:44:52;99732.34;;;22.24;33.33
9415;BME280;4746;35.664;139.738;2023-05-24T00:47:20;99723.97;;;22.36;33.13
9415;BME280;4746;35.664;139.738;2023-05-24T00:49:48;99736.41;;;22.31;32.63
9415;BME280;4746;35.664;139.738;2023-05-24T00:52:17;99741.47;;;22.34;33.11
9415;BME280;4746;35.664;139.738;2023-05-24T00:54:44;99743.00;;;22.38;32.83
9415;BME280;4746;35.664;139.738;2023-05-24T00:57:12;99714.34;;;22.55;32.44
9415;BME280;4746;35.664;139.738;2023-05-24T00:59:42;99739.19;;;22.62;32.91
9415;BME280;4746;35.664;139.738;2023-05-24T01:02:09;99734.06;;;22.60;32.51
9415;BME280;4746;35.664;139.738;2023-05-24T01:04:37;99715.56;;;22.65;32.68
9415;BME280;4746;35.664;139.738;2023-05-24T01:07:21;99725.69;;;22.71;32.83
9415;BME280;4746;35.664;139.738;2023-05-24T01:13:30;99737.69;;;22.75;32.65
9415;BME280;4746;35.664;139.738;2023-05-24T01:16:46;99737.38;;;22.81;33.11
9415;BME280;4746;35.664;139.738;2023-05-24T01:19:53;99736.25;;;22.86;33.49
9415;BME280;4746;35.664;139.738;2023-05-24T01:23:04;99698.16;;;22.98;33.16
9415;BME280;4746;35.664;139.738;2023-05-24T01:28:26;99734.75;;;22.98;32.65
9415;BME280;4746;35.664;139.738;2023-05-24T01:30:55;99736.34;;;23.02;32.69
9415;BME280;4746;35.664;139.738;2023-05-24T01:33:22;99701.88;;;23.10;32.82
9415;BME280;4746;35.664;139.738;2023-05-24T01:35:50;99737.16;;;23.19;32.62
9415;BME280;4746;35.664;139.738;2023-05-24T01:38:18;99744.59;;;23.26;32.66
9415;BME280;4746;35.664;139.738;2023-05-24T01:40:51;99734.78;;;23.31;32.73
9415;BME280;4746;35.664;139.738;2023-05-24T01:43:23;99740.84;;;23.32;32.43
9415;BME280;4746;35.664;139.738;2023-05-24T01:46:33;99746.28;;;23.44;32.45
9415;BME280;4746;35.664;139.738;2023-05-24T01:49:22;99745.22;;;23.48;32.50
9415;BME280;4746;35.664;139.738;2023-05-24T01:52:04;99717.94;;;23.52;32.34
9415;BME280;4746;35.664;139.738;2023-05-24T01:54:37;99741.25;;;23.57;31.78
9415;BME280;4746;35.664;139.738;2023-05-24T01:57:09;99688.66;;;23.61;31.90
9415;BME280;4746;35.664;139.738;2023-05-24T01:59:42;99759.41;;;23.60;31.04
9415;BME280;4746;35.664;139.738;2023-05-24T02:02:11;99754.56;;;23.52;30.54
9415;BME280;4746;35.664;139.738;2023-05-24T02:04:41;99752.03;;;23.51;30.37
9415;BME280;4746;35.664;139.738;2023-05-24T02:07:09;99722.19;;;23.55;30.93
9415;BME280;4746;35.664;139.738;2023-05-24T02:09:38;99743.47;;;23.64;30.34
9415;BME280;4746;35.664;139.738;2023-05-24T02:12:06;99728.25;;;23.72;30.34
9415;BME280;4746;35.664;139.738;2023-05-24T02:14:34;99732.88;;;23.82;29.56
9415;BME280;4746;35.664;139.738;2023-05-24T02:17:04;99741.50;;;23.84;29.90
9415;BME280;4746;35.664;139.738;2023-05-24T02:19:32;99744.91;;;23.86;29.19
9415;BME280;4746;35.664;139.738;2023-05-24T02:22:02;99759.59;;;23.89;29.27
9415;BME280;4746;35.664;139.738;2023-05-24T02:24:30;99762.78;;;23.94;29.25
9415;BME280;4746;35.664;139.738;2023-05-24T02:26:57;99757.38;;;23.97;29.55
9415;BME280;4746;35.664;139.738;2023-05-24T02:29:25;99736.63;;;24.09;29.34
9415;BME280;4746;35.664;139.738;2023-05-24T02:31:53;99772.09;;;24.15;29.21
9415;BME280;4746;35.664;139.738;2023-05-24T02:34:23;99766.50;;;24.21;29.28
9415;BME280;4746;35.664;139.738;2023-05-24T02:36:51;99764.31;;;24.29;29.30
9415;BME280;4746;35.664;139.738;2023-05-24T02:39:20;99758.56;;;24.38;28.86
9415;BME280;4746;35.664;139.738;2023-05-24T02:41:47;99753.78;;;24.46;28.44
9415;BME280;4746;35.664;139.738;2023-05-24T02:44:15;99754.28;;;24.52;28.89
9415;BME280;4746;35.664;139.738;2023-05-24T02:46:42;99754.69;;;24.60;28.38
9415;BME280;4746;35.664;139.738;2023-05-24T02:49:10;99757.97;;;24.63;28.17
9415;BME280;4746;35.664;139.738;2023-05-24T02:51:37;99734.88;;;24.70;28.21
9415;BME280;4746;35.664;139.738;2023-05-24T02:54:05;99763.44;;;24.74;27.75
9415;BME280;4746;35.664;139.738;2023-05-24T02:56:33;99722.84;;;24.81;28.09
9415;BME280;4746;35.664;139.738;2023-05-24T02:59:00;99761.56;;;24.92;27.73
9415;BME280;4746;35.664;139.738;2023-05-24T03:01:28;99737.50;;;24.99;27.84
9415;BME280;4746;35.664;139.738;2023-05-24T03:03:56;99752.31;;;25.00;27.33
9415;BME280;4746;35.664;139.738;2023-05-24T03:06:23;99726.16;;;24.99;27.25
9415;BME280;4746;35.664;139.738;2023-05-24T03:08:51;99753.81;;;25.04;27.79
9415;BME280;4746;35.664;139.738;2023-05-24T03:11:18;99753.59;;;25.09;27.69
9415;BME280;4746;35.664;139.738;2023-05-24T03:13:48;99750.88;;;25.10;28.30
9415;BME280;4746;35.664;139.738;2023-05-24T03:16:15;99749.34;;;25.06;28.14
9415;BME280;4746;35.664;139.738;2023-05-24T03:18:43;99729.28;;;25.05;27.78
9415;BME280;4746;35.664;139.738;2023-05-24T03:21:10;99729.53;;;25.16;27.80
9415;BME280;4746;35.664;139.738;2023-05-24T03:23:38;99716.22;;;25.33;27.78
9415;BME280;4746;35.664;139.738;2023-05-24T03:26:06;99729.53;;;25.44;27.75
9415;BME280;4746;35.664;139.738;2023-05-24T03:28:33;99752.13;;;25.60;27.84
9415;BME280;4746;35.664;139.738;2023-05-24T03:31:01;99745.28;;;25.72;27.17
9415;BME280;4746;35.664;139.738;2023-05-24T03:33:29;99724.13;;;25.75;26.55
9415;BME280;4746;35.664;139.738;2023-05-24T03:35:58;99751.03;;;25.78;26.99
9415;BME280;4746;35.664;139.738;2023-05-24T03:38:26;99768.19;;;25.84;27.17
9415;BME280;4746;35.664;139.738;2023-05-24T03:40:53;99771.09;;;25.93;26.91
9415;BME280;4746;35.664;139.738;2023-05-24T03:43:21;99749.03;;;26.09;27.00
9415;BME280;4746;35.664;139.738;2023-05-24T03:45:49;99763.91;;;26.23;26.99
9415;BME280;4746;35.664;139.738;2023-05-24T03:48:17;99764.00;;;26.35;27.07
9415;BME280;4746;35.664;139.738;2023-05-24T03:50:47;99775.81;;;26.42;27.23
9415;BME280;4746;35.664;139.738;2023-05-24T03:53:14;99764.72;;;26.51;27.03
9415;BME280;4746;35.664;139.738;2023-05-24T03:55:42;99776.97;;;26.65;26.84
9415;BME280;4746;35.664;139.738;2023-05-24T03:58:09;99764.47;;;26.68;26.32
9415;BME280;4746;35.664;139.738;2023-05-24T04:00:38;99761.44;;;26.74;26.54
9415;BME280;4746;35.664;139.738;2023-05-24T04:03:05;99745.66;;;26.74;26.48
9415;BME280;4746;35.664;139.738;2023-05-24T04:05:34;99740.28;;;26.75;26.62
9415;BME280;4746;35.664;139.738;2023-05-24T04:08:02;99734.53;;;26.83;26.68
9415;BME280;4746;35.664;139.738;2023-05-24T04:10:30;99727.72;;;26.93;26.08
9415;BME280;4746;35.664;139.738;2023-05-24T04:12:57;99707.97;;;27.00;26.30
9415;BME280;4746;35.664;139.738;2023-05-24T04:15:26;99722.31;;;27.08;26.17
9415;BME280;4746;35.664;139.738;2023-05-24T04:17:53;99705.47;;;27.11;26.36
9415;BME280;4746;35.664;139.738;2023-05-24T04:20:22;99723.56;;;27.03;26.52
9415;BME280;4746;35.664;139.738;2023-05-24T04:22:54;99711.34;;;27.02;27.02
9415;BME280;4746;35.664;139.738;2023-05-24T04:25:22;99731.88;;;27.09;27.05
9415;BME280;4746;35.664;139.738;2023-05-24T04:27:50;99724.72;;;27.24;26.92
9415;BME280;4746;35.664;139.738;2023-05-24T04:30:17;99742.22;;;27.37;26.90
9415;BME280;4746;35.664;139.738;2023-05-24T04:32:45;99743.09;;;27.62;26.34
9415;BME280;4746;35.664;139.738;2023-05-24T04:35:13;99758.66;;;27.65;26.76
9415;BME280;4746;35.664;139.738;2023-05-24T04:37:41;99746.94;;;27.82;26.40
9415;BME280;4746;35.664;139.738;2023-05-24T04:40:11;99745.34;;;27.92;26.10
9415;BME280;4746;35.664;139.738;2023-05-24T04:42:39;99759.88;;;27.97;26.04
9415;BME280;4746;35.664;139.738;2023-05-24T04:45:09;99756.72;;;28.05;25.87
9415;BME280;4746;35.664;139.738;2023-05-24T04:47:37;99753.75;;;28.09;25.91
9415;BME280;4746;35.664;139.738;2023-05-24T04:50:05;99743.91;;;28.11;24.93
9415;BME280;4746;35.664;139.738;2023-05-24T04:52:32;99754.19;;;28.03;25.22
9415;BME280;4746;35.664;139.738;2023-05-24T04:55:03;99754.38;;;28.00;24.94
9415;BME280;4746;35.664;139.738;2023-05-24T04:57:31;99760.84;;;27.96;24.92
9415;BME280;4746;35.664;139.738;2023-05-24T04:59:58;99758.31;;;27.82;24.78
9415;BME280;4746;35.664;139.738;2023-05-24T05:02:26;99767.50;;;27.77;24.51
9415;BME280;4746;35.664;139.738;2023-05-24T05:04:53;99761.38;;;27.76;24.77
9415;BME280;4746;35.664;139.738;2023-05-24T05:07:21;99775.94;;;27.82;24.80
9415;BME280;4746;35.664;139.738;2023-05-24T05:09:48;99784.97;;;27.90;24.47
9415;BME280;4746;35.664;139.738;2023-05-24T05:12:16;99786.31;;;28.08;24.28
9415;BME280;4746;35.664;139.738;2023-05-24T05:14:43;99779.47;;;28.06;23.83
9415;BME280;4746;35.664;139.738;2023-05-24T05:17:11;99776.28;;;28.13;23.63
9415;BME280;4746;35.664;139.738;2023-05-24T05:19:39;99757.50;;;28.30;23.45
9415;BME280;4746;35.664;139.738;2023-05-24T05:22:06;99785.91;;;28.50;22.02
9415;BME280;4746;35.664;139.738;2023-05-24T05:24:34;99801.13;;;28.46;22.14
9415;BME280;4746;35.664;139.738;2023-05-24T05:27:01;99809.91;;;28.58;22.59
9415;BME280;4746;35.664;139.738;2023-05-24T05:29:29;99805.88;;;28.77;21.76
9415;BME280;4746;35.664;139.738;2023-05-24T05:31:56;99788.03;;;28.81;22.00
9415;BME280;4746;35.664;139.738;2023-05-24T05:34:24;99816.63;;;28.86;22.23
9415;BME280;4746;35.664;139.738;2023-05-24T05:36:52;99811.09;;;28.89;21.82
9415;BME280;4746;35.664;139.738;2023-05-24T05:39:20;99807.25;;;28.93;22.28
9415;BME280;4746;35.664;139.738;2023-05-24T05:41:47;99775.09;;;29.23;21.81
9415;BME280;4746;35.664;139.738;2023-05-24T05:44:15;99800.56;;;29.80;20.96
9415;BME280;4746;35.664;139.738;2023-05-24T05:46:42;99762.94;;;30.31;20.27
9415;BME280;4746;35.664;139.738;2023-05-24T05:49:12;99757.34;;;30.67;20.55
9415;BME280;4746;35.664;139.738;2023-05-24T05:51:41;99817.34;;;30.77;19.72
9415;BME280;4746;35.664;139.738;2023-05-24T05:54:08;99792.84;;;30.96;20.06
9415;BME280;4746;35.664;139.738;2023-05-24T05:56:42;99808.47;;;31.09;19.00
9415;BME280;4746;35.664;139.738;2023-05-24T05:59:17;99807.97;;;31.15;18.93
9415;BME280;4746;35.664;139.738;2023-05-24T06:01:45;99801.34;;;31.10;18.67
9415;BME280;4746;35.664;139.738;2023-05-24T06:04:18;99822.84;;;31.27;18.81
9415;BME280;4746;35.664;139.738;2023-05-24T06:06:45;99810.09;;;31.42;18.68
9415;BME280;4746;35.664;139.738;2023-05-24T06:09:16;99810.06;;;31.53;19.00
9415;BME280;4746;35.664;139.738;2023-05-24T06:11:43;99811.69;;;31.65;18.60
9415;BME280;4746;35.664;139.738;2023-05-24T06:14:13;99816.69;;;31.58;18.46
9415;BME280;4746;35.664;139.738;2023-05-24T06:16:44;99819.59;;;31.44;18.39
9415;BME280;4746;35.664;139.738;2023-05-24T06:19:13;99836.31;;;31.45;18.51
9415;BME280;4746;35.664;139.738;2023-05-24T06:21:42;99835.28;;;31.97;17.64
9415;BME280;4746;35.664;139.738;2023-05-24T06:24:15;99826.16;;;33.55;16.51
9415;BME280;4746;35.664;139.738;2023-05-24T06:26:50;99827.78;;;35.01;16.04
9415;BME280;4746;35.664;139.738;2023-05-24T06:29:19;99814.88;;;35.66;14.89
9415;BME280;4746;35.664;139.738;2023-05-24T06:31:48;99818.75;;;36.30;15.04
9415;BME280;4746;35.664;139.738;2023-05-24T06:34:17;99848.91;;;36.97;14.33
9415;BME280;4746;35.664;139.738;2023-05-24T06:36:47;99846.97;;;37.63;14.62
9415;BME280;4746;35.664;139.738;2023-05-24T06:39:17;99853.09;;;38.19;14.13
9415;BME280;4746;35.664;139.738;2023-05-24T06:41:45;99852.22;;;38.73;13.60
9415;BME280;4746;35.664;139.738;2023-05-24T06:44:13;99842.00;;;39.29;13.50
9415;BME280;4746;35.664;139.738;2023-05-24T06:46:42;99848.03;;;40.04;12.77
9415;BME280;4746;35.664;139.738;2023-05-24T06:49:10;99834.50;;;39.98;12.14
9415;BME280;4746;35.664;139.738;2023-05-24T06:51:38;99849.13;;;40.10;12.21
9415;BME280;4746;35.664;139.738;2023-05-24T06:54:05;99850.06;;;40.17;12.18
9415;BME280;4746;35.664;139.738;2023-05-24T06:56:33;99856.88;;;40.27;12.20
9415;BME280;4746;35.664;139.738;2023-05-24T06:59:00;99863.22;;;40.69;11.89
9415;BME280;4746;35.664;139.738;2023-05-24T07:01:28;99860.19;;;40.58;12.00
9415;BME280;4746;35.664;139.738;2023-05-24T07:03:56;99870.47;;;40.54;12.19
9415;BME280;4746;35.664;139.738;2023-05-24T07:06:23;99864.50;;;40.73;11.79
9415;BME280;4746;35.664;139.738;2023-05-24T07:08:51;99880.22;;;40.70;11.83
9415;BME280;4746;35.664;139.738;2023-05-24T07:11:18;99885.66;;;41.12;11.76
9415;BME280;4746;35.664;139.738;2023-05-24T07:13:46;99889.34;;;41.25;11.73
9415;BME280;4746;35.664;139.738;2023-05-24T07:16:13;99884.88;;;41.53;11.17
9415;BME280;4746;35.664;139.738;2023-05-24T07:18:41;99899.19;;;42.29;11.50
9415;BME280;4746;35.664;139.738;2023-05-24T07:21:09;99899.53;;;42.93;10.74
9415;BME280;4746;35.664;139.738;2023-05-24T07:23:37;99903.84;;;43.41;11.01
9415;BME280;4746;35.664;139.738;2023-05-24T07:26:05;99887.19;;;43.25;10.49
9415;BME280;4746;35.664;139.738;2023-05-24T07:28:33;99914.59;;;43.22;10.67
9415;BME280;4746;35.664;139.738;2023-05-24T07:31:04;99901.94;;;43.22;10.79
9415;BME280;4746;35.664;139.738;2023-05-24T07:33:31;99901.28;;;43.14;10.47
9415;BME280;4746;35.664;139.738;2023-05-24T07:35:59;99907.56;;;43.27;10.94
9415;BME280;4746;35.664;139.738;2023-05-24T07:38:26;99922.19;;;43.71;10.54
9415;BME280;4746;35.664;139.738;2023-05-24T07:40:57;99928.03;;;43.81;10.29
9415;BME280;4746;35.664;139.738;2023-05-24T07:43:25;99929.97;;;43.28;10.10
9415;BME280;4746;35.664;139.738;2023-05-24T07:45:53;99949.59;;;42.62;10.17
9415;BME280;4746;35.664;139.738;2023-05-24T07:48:22;99945.31;;;42.40;10.79
9415;BME280;4746;35.664;139.738;2023-05-24T07:50:51;99947.44;;;42.51;10.52
9415;BME280;4746;35.664;139.738;2023-05-24T07:53:19;99941.47;;;42.96;10.77
9415;BME280;4746;35.664;139.738;2023-05-24T07:55:46;99950.22;;;43.57;10.70
9415;BME280;4746;35.664;139.738;2023-05-24T07:58:14;99961.25;;;43.56;10.34
9415;BME280;4746;35.664;139.738;2023-05-24T08:00:42;99953.53;;;43.46;10.33
9415;BME280;4746;35.664;139.738;2023-05-24T08:03:10;99975.44;;;43.18;10.12
9415;BME280;4746;35.664;139.738;2023-05-24T08:05:40;99976.03;;;43.20;10.04
9415;BME280;4746;35.664;139.738;2023-05-24T08:08:07;99978.16;;;43.31;10.14
9415;BME280;4746;35.664;139.738;2023-05-24T08:10:35;99994.56;;;43.29;9.96
9415;BME280;4746;35.664;139.738;2023-05-24T08:13:03;99996.13;;;43.57;10.16
9415;BME280;4746;35.664;139.738;2023-05-24T08:15:31;99996.84;;;43.85;10.01
9415;BME280;4746;35.664;139.738;2023-05-24T08:17:59;100002.88;;;44.00;10.13
9415;BME280;4746;35.664;139.738;2023-05-24T08:20:26;100004.31;;;43.90;10.20
9415;BME280;4746;35.664;139.738;2023-05-24T08:22:54;100008.22;;;43.81;10.24
9415;BME280;4746;35.664;139.738;2023-05-24T08:25:22;100013.00;;;43.13;10.08
9415;BME280;4746;35.664;139.738;2023-05-24T08:27:49;100017.00;;;42.35;9.96
9415;BME280;4746;35.664;139.738;2023-05-24T08:30:17;100026.69;;;41.88;10.63
9415;BME280;4746;35.664;139.738;2023-05-24T08:32:45;100026.09;;;41.50;10.51
9415;BME280;4746;35.664;139.738;2023-05-24T08:35:13;100022.50;;;41.29;11.04
9415;BME280;4746;35.664;139.738;2023-05-24T08:37:41;100022.13;;;40.74;11.15
9415;BME280;4746;35.664;139.738;2023-05-24T08:40:09;100031.22;;;40.00;11.44
9415;BME280;4746;35.664;139.738;2023-05-24T08:42:38;100044.22;;;39.58;11.80
9415;BME280;4746;35.664;139.738;2023-05-24T08:45:16;100057.72;;;39.42;12.12
9415;BME280;4746;35.664;139.738;2023-05-24T08:47:46;100048.47;;;38.98;12.64
9415;BME280;4746;35.664;139.738;2023-05-24T08:50:13;100041.03;;;38.62;12.11
9415;BME280;4746;35.664;139.738;2023-05-24T08:52:42;100051.94;;;38.37;12.63
9415;BME280;4746;35.664;139.738;2023-05-24T08:55:11;100062.47;;;38.07;13.04
9415;BME280;4746;35.664;139.738;2023-05-24T08:57:39;100061.84;;;37.63;13.01
9415;BME280;4746;35.664;139.738;2023-05-24T09:00:10;100065.19;;;36.40;13.56
9415;BME280;4746;35.664;139.738;2023-05-24T09:02:42;100067.06;;;34.88;14.28
9415;BME280;4746;35.664;139.738;2023-05-24T09:05:13;100083.63;;;33.69;15.44
9415;BME280;4746;35.664;139.738;2023-05-24T09:07:49;100086.16;;;32.72;16.37
9415;BME280;4746;35.664;139.738;2023-05-24T09:10:21;100098.06;;;31.94;17.00
9415;BME280;4746;35.664;139.738;2023-05-24T09:12:55;100090.94;;;31.31;17.27
9415;BME280;4746;35.664;139.738;2023-05-24T09:15:23;100109.69;;;30.73;18.00
9415;BME280;4746;35.664;139.738;2023-05-24T09:17:52;100110.91;;;30.23;18.44
9415;BME280;4746;35.664;139.738;2023-05-24T09:20:22;100118.94;;;29.74;18.98
9415;BME280;4746;35.664;139.738;2023-05-24T09:22:52;100124.34;;;29.37;19.56
9415;BME280;4746;35.664;139.738;2023-05-24T09:25:20;100127.06;;;28.98;19.66
9415;BME280;4746;35.664;139.738;2023-05-24T09:27:52;100125.97;;;28.64;20.15
9415;BME280;4746;35.664;139.738;2023-05-24T09:30:20;100137.09;;;28.30;20.37
9415;BME280;4746;35.664;139.738;2023-05-24T09:33:14;100140.59;;;28.04;20.64
9415;BME280;4746;35.664;139.738;2023-05-24T09:35:42;100152.34;;;27.72;21.09
9415;BME280;4746;35.664;139.738;2023-05-24T09:38:17;100154.41;;;27.53;21.08
9415;BME280;4746;35.664;139.738;2023-05-24T09:40:45;100154.25;;;27.29;21.43
9415;BME280;4746;35.664;139.738;2023-05-24T09:43:14;100152.66;;;27.12;21.74
9415;BME280;4746;35.664;139.738;2023-05-24T09:45:44;100161.72;;;26.93;21.67
9415;BME280;4746;35.664;139.738;2023-05-24T09:48:16;100166.38;;;26.74;22.11
9415;BME280;4746;35.664;139.738;2023-05-24T09:50:44;100167.47;;;26.56;22.53
9415;BME280;4746;35.664;139.738;2023-05-24T09:53:23;100181.56;;;26.40;22.78
9415;BME280;4746;35.664;139.738;2023-05-24T09:55:54;100179.56;;;26.29;22.84
9415;BME280;4746;35.664;139.738;2023-05-24T09:58:28;100194.13;;;26.19;23.07
9415;BME280;4746;35.664;139.738;2023-05-24T10:01:07;100194.47;;;26.13;23.41
9415;BME280;4746;35.664;139.738;2023-05-24T10:03:37;100199.47;;;26.02;23.45
9415;BME280;4746;35.664;139.738;2023-05-24T10:06:10;100200.00;;;25.94;23.53
9415;BME280;4746;35.664;139.738;2023-05-24T10:08:40;100201.38;;;25.85;23.46
9415;BME280;4746;35.664;139.738;2023-05-24T10:11:07;100200.00;;;25.78;23.60
9415;BME280;4746;35.664;139.738;2023-05-24T10:13:36;100216.00;;;25.74;23.62
9415;BME280;4746;35.664;139.738;2023-05-24T10:16:04;100211.88;;;25.68;23.74
9415;BME280;4746;35.664;139.738;2023-05-24T10:18:32;100217.41;;;25.64;23.89
9415;BME280;4746;35.664;139.738;2023-05-24T10:21:01;100208.94;;;25.59;23.82
9415;BME280;4746;35.664;139.738;2023-05-24T10:23:36;100213.56;;;25.54;23.74
9415;BME280;4746;35.664;139.738;2023-05-24T10:28:45;100226.06;;;25.49;24.17
9415;BME280;4746;35.664;139.738;2023-05-24T10:31:37;100237.22;;;25.37;24.23
9415;BME280;4746;35.664;139.738;2023-05-24T10:34:07;100237.22;;;25.37;24.40
9415;BME280;4746;35.664;139.738;2023-05-24T10:36:36;100244.34;;;25.35;24.59
9415;BME280;4746;35.664;139.738;2023-05-24T10:39:09;100247.13;;;25.32;24.56
9415;BME280;4746;35.664;139.738;2023-05-24T10:41:40;100245.69;;;25.26;25.08
9415;BME280;4746;35.664;139.738;2023-05-24T10:44:16;100271.03;;;25.26;26.23
9415;BME280;4746;35.664;139.738;2023-05-24T10:47:10;100280.69;;;25.25;28.38
9415;BME280;4746;35.664;139.738;2023-05-24T10:49:50;100271.53;;;25.17;31.41
9415;BME280;4746;35.664;139.738;2023-05-24T10:52:19;100278.00;;;25.10;33.77
9415;BME280;4746;35.664;139.738;2023-05-24T10:55:18;100283.16;;;25.12;34.04
9415;BME280;4746;35.664;139.738;2023-05-24T10:57:46;100293.41;;;24.99;36.73
9415;BME280;4746;35.664;139.738;2023-05-24T11:03:09;100310.28;;;24.94;37.62
9415;BME280;4746;35.664;139.738;2023-05-24T11:08:31;100333.03;;;24.76;39.11
9415;BME280;4746;35.664;139.738;2023-05-24T11:11:07;100341.31;;;24.67;40.17
9415;BME280;4746;35.664;139.738;2023-05-24T11:13:41;100333.75;;;24.61;40.51
9415;BME280;4746;35.664;139.738;2023-05-24T11:16:09;100342.06;;;24.52;40.75
9415;BME280;4746;35.664;139.738;2023-05-24T11:18:56;100353.59;;;24.49;40.91
9415;BME280;4746;35.664;139.738;2023-05-24T11:21:24;100354.56;;;24.46;41.13
9415;BME280;4746;35.664;139.738;2023-05-24T11:23:53;100368.69;;;24.44;41.52
9415;BME280;4746;35.664;139.738;2023-05-24T11:26:21;100374.16;;;24.38;41.97
9415;BME280;4746;35.664;139.738;2023-05-24T11:28:50;100377.16;;;24.30;42.27
9415;BME280;4746;35.664;139.738;2023-05-24T11:31:18;100389.53;;;24.27;42.61
9415;BME280;4746;35.664;139.738;2023-05-24T11:33:52;100386.16;;;24.25;42.52
9415;BME280;4746;35.664;139.738;2023-05-24T11:36:20;100383.47;;;24.26;42.57
9415;BME280;4746;35.664;139.738;2023-05-24T11:38:49;100384.09;;;24.31;42.16
9415;BME280;4746;35.664;139.738;2023-05-24T11:41:19;100386.00;;;24.28;42.59
9415;BME280;4746;35.664;139.738;2023-05-24T11:43:46;100385.22;;;24.26;42.62
9415;BME280;4746;35.664;139.738;2023-05-24T11:46:15;100393.22;;;24.23;43.04
9415;BME280;4746;35.664;139.738;2023-05-24T11:48:59;100402.69;;;24.25;42.50
9415;BME280;4746;35.664;139.738;2023-05-24T11:51:29;100403.97;;;24.17;43.12
9415;BME280;4746;35.664;139.738;2023-05-24T11:54:01;100404.25;;;24.11;43.29
9415;BME280;4746;35.664;139.738;2023-05-24T11:56:30;100402.69;;;24.07;43.71
9415;BME280;4746;35.664;139.738;2023-05-24T11:59:22;100416.69;;;24.06;43.15
9415;BME280;4746;35.664;139.738;2023-05-24T12:02:11;100429.16;;;24.01;43.27
9415;BME280;4746;35.664;139.738;2023-05-24T12:04:38;100437.53;;;23.89;43.92
9415;BME280;4746;35.664;139.738;2023-05-24T12:07:11;100426.13;;;23.90;44.01
9415;BME280;4746;35.664;139.738;2023-05-24T12:09:38;100436.88;;;23.84;44.30
9415;BME280;4746;35.664;139.738;2023-05-24T12:12:06;100444.06;;;23.79;44.45
9415;BME280;4746;35.664;139.738;2023-05-24T12:14:34;100449.44;;;23.76;44.67
9415;BME280;4746;35.664;139.738;2023-05-24T12:17:02;100451.38;;;23.71;44.92
9415;BME280;4746;35.664;139.738;2023-05-24T12:19:32;100461.84;;;23.71;44.54
9415;BME280;4746;35.664;139.738;2023-05-24T12:22:06;100472.41;;;23.68;44.56
9415;BME280;4746;35.664;139.738;2023-05-24T12:24:36;100473.41;;;23.66;44.42
9415;BME280;4746;35.664;139.738;2023-05-24T12:27:05;100477.97;;;23.61;44.71
9415;BME280;4746;35.664;139.738;2023-05-24T12:29:39;100498.00;;;23.62;44.83
9415;BME280;4746;35.664;139.738;2023-05-24T12:32:10;100499.06;;;23.58;44.89
9415;BME280;4746;35.664;139.738;2023-05-24T12:34:41;100513.88;;;23.57;44.93
9415;BME280;4746;35.664;139.738;2023-05-24T12:37:10;100523.53;;;23.55;44.95
9415;BME280;4746;35.664;139.738;2023-05-24T12:39:38;100521.97;;;23.51;45.21
9415;BME280;4746;35.664;139.738;2023-05-24T12:42:10;100525.41;;;23.53;45.19
9415;BME280;4746;35.664;139.738;2023-05-24T12:44:38;100528.19;;;23.49;45.33
9415;BME280;4746;35.664;139.738;2023-05-24T12:47:08;100532.69;;;23.45;45.16
9415;BME280;4746;35.664;139.738;2023-05-24T12:49:35;100538.09;;;23.41;45.14
9415;BME280;4746;35.664;139.738;2023-05-24T12:52:03;100539.06;;;23.38;45.37
9415;BME280;4746;35.664;139.738;2023-05-24T12:54:34;100531.38;;;23.35;45.20
9415;BME280;4746;35.664;139.738;2023-05-24T12:57:01;100537.69;;;23.30;45.40
9415;BME280;4746;35.664;139.738;2023-05-24T12:59:29;100533.31;;;23.30;45.62
9415;BME280;4746;35.664;139.738;2023-05-24T13:01:58;100543.03;;;23.27;45.90
9415;BME280;4746;35.664;139.738;2023-05-24T13:04:26;100544.00;;;23.24;46.10
9415;BME280;4746;35.664;139.738;2023-05-24T13:06:56;100537.19;;;23.20;45.83
9415;BME280;4746;35.664;139.738;2023-05-24T13:09:23;100532.09;;;23.17;46.55
9415;BME280;4746;35.664;139.738;2023-05-24T13:11:53;100536.41;;;23.18;45.84
9415;BME280;4746;35.664;139.738;2023-05-24T13:14:21;100546.06;;;23.16;46.33
9415;BME280;4746;35.664;139.738;2023-05-24T13:16:49;100554.88;;;23.14;46.60
9415;BME280;4746;35.664;139.738;2023-05-24T13:19:16;100552.41;;;23.11;46.35
9415;BME280;4746;35.664;139.738;2023-05-24T13:21:44;100556.81;;;23.09;46.50
9415;BME280;4746;35.664;139.738;2023-05-24T13:24:14;100569.16;;;23.06;46.60
9415;BME280;4746;35.664;139.738;2023-05-24T13:26:42;100565.63;;;23.07;46.62